JP Observations

RJTE 192005Z 34004KT 8000 FEW008 BKN015 BKN035 22/21 Q1014 RMK 1ST008 5CU015 7SC035 A2995 RJAA 192000Z VRB02KT 6000 FEW015 BKN060 19/18 Q1014 TEMPO 4000 BR FEW008 BKN012 RJAA 192000Z VRB02KT 6000 FEW015 BKN060 19/18 Q1014 TEMPO 4000 BR FEW008 BKN012RMK 1CU015 7SC060 A2994 RJAH 192000Z 34003KT 2000 BR MIFG FEW003 BKN080 16/16 Q1013 RJAW 192000Z 12008KT 9999 SCT010 26/24 Q1015 RMK 3CU010 A2999 RJBB 192000Z AUTO 05012KT 9999 NCD 20/16 Q1018 NOSIG RJCC 192000Z 01008KT 9999 -SHRA FEW010 BKN025 11/11 Q1013 RJCC 192000Z 01008KT 9999 -SHRA FEW010 BKN025 11/11 Q1013 RMK 1ST010 6CU025 A2993 RJDK 192000Z AUTO 05012KT 320V100 9999 FEW023 SCT029 20/16 Q1019 RJFF 192000Z AUTO 13002KT 9999 NCD 15/15 Q1019 NOSIG RJFF 192000Z AUTO 13002KT 9999 NCD 15/15 Q1019 NOSIG RMK A3010 RJFR 192000Z 32005KT 9999 FEW020 BKN/// 18/17 Q1018 RJGG 192000Z 31019KT 9999 FEW010 SCT/// 21/16 Q1015 NOSIG RJKI 192000Z AUTO 01008KT 9999 -RA SCT007 BKN009 BKN010 //////TCU 23/22 Q1014 RJNK 192000Z 06003KT 9999 FEW010 SCT040 BKN060 17/16 Q1019 RJNY 192002Z 29003KT 260V340 2000 R09/1300VP1800D -DZ BR FEW001 BKN002 BKN006 20/20 Q1014 RMK 1ST001 5ST002 7ST006 A2996 R1700 VIS SE-W 1200M RJOH 192000Z 23005KT 9999 FEW015 SCT020 17/16 Q1019 RJOI 191955Z 30007KT 9999 FEW030 BKN290 16/14 A3009 RMK SLP188 T01610139 RJOO 192000Z 33006KT 9999 FEW025 BKN/// 18/16 Q1018 RJOO 192000Z 33006KT 9999 FEW025 BKN/// 18/16 Q1018 RMK 2CU025 A3006 RJOS 192000Z 01007KT 9999 SCT020 BKN060 BKN/// 20/16 Q1018 RJSD 192000Z AUTO VRB02KT 9999 SCT043 BKN044 OVC050 15/14 Q1019 RJSM 192000Z 27012KT 9999 FEW030 13/11 Q1014 RJTT 192000Z 08002KT 9999 FEW015 BKN040 19/19 Q1014 BECMG 02008KT RJTT 192000Z 08002KT 9999 FEW015 BKN040 19/19 Q1014 BECMG 02008KT RMK 1CU015 7SC040 A2995 RJTY 191956Z AUTO 00000KT 10SM CLR 16/15 A3001 RMK AO2 SLP163 T01560154 PNO FZRANO $ ROAH 192000Z 05010KT 9999 FEW020 SCT040 BKN120 25/21 Q1012 ROAH 192000Z 05010KT 9999 FEW020 SCT040 BKN120 25/21 Q1012 RMK 1CU020 4SC040 7AC120 A2989 RODN 191956Z AUTO 05012KT 10SM FEW095 BKN120 24/21 A2991 RMK AO2 SLP134 T02380209 $ ROMD 192000Z AUTO 12004KT 030V200 9999 FEW013 SCT240 27/25 Q1012 ROYN 192000Z AUTO 01025KT 9999 SCT023 SCT029 BKN036 25/20 Q1014 ROTM 191956Z 05010KT 9999 SCT090 OVC110 24/21 A2992 RMK SLP117 T02390211